Time;durP1;ratioP1;P1;durP2;ratioP2;P2;SDS_P1;SDS_P2;PMS_P1;PMS_P2;Temp;Humidity;BMP_temperature;BMP_pressure;BME280_temperature;BME280_humidity;BME280_pressure;Samples;Min_cycle;Max_cycle;Signal;HPM_P1;HPM_P2
2022/11/29 00:01:39;;;;;;;;;4.25;4.25;;;;;7.79;90.90;100467.41;6222203;22;45382;-89
2022/11/29 00:04:05;;;;;;;;;4.00;4.00;;;;;7.71;91.33;100449.94;6218139;22;45333;-89
2022/11/29 00:06:32;;;;;;;;;4.25;4.25;;;;;7.73;91.17;100462.22;6244328;22;45551;-87
2022/11/29 00:09:00;;;;;;;;;5.25;3.00;;;;;8.27;90.97;100561.66;6244897;22;45520;-89
2022/11/29 00:14:16;;;;;;;;;4.25;4.00;;;;;8.36;91.66;100585.25;6250942;22;45312;-88
2022/11/29 00:16:42;;;;;;;;;3.00;3.00;;;;;7.92;91.36;100518.16;6246870;22;45235;-88
2022/11/29 00:19:09;;;;;;;;;2.50;2.00;;;;;8.16;91.32;100563.56;6217855;22;48213;-89
2022/11/29 00:21:35;;;;;;;;;6.00;6.00;;;;;7.19;90.97;100419.75;6246562;22;45388;-89
2022/11/29 00:24:00;;;;;;;;;5.75;4.25;;;;;7.88;90.85;100537.50;6223550;22;45398;-89
2022/11/29 00:26:26;;;;;;;;;4.75;3.50;;;;;6.92;91.15;100358.66;6250258;22;45205;-88
2022/11/29 00:28:52;;;;;;;;;5.00;3.50;;;;;8.03;91.78;100551.41;6216808;22;45942;-88
2022/11/29 00:31:29;;;;;;;;;6.00;3.75;;;;;7.93;90.89;100538.31;6244438;22;45340;-89
2022/11/29 00:33:55;;;;;;;;;4.00;4.00;;;;;7.13;91.52;100404.03;6248870;22;45354;-90
2022/11/29 00:36:21;;;;;;;;;3.00;3.00;;;;;8.24;91.85;100602.97;6254274;22;45099;-88
2022/11/29 00:38:46;;;;;;;;;3.25;3.25;;;;;7.66;91.12;100515.78;6253226;22;45266;-89
2022/11/29 00:41:12;;;;;;;;;3.25;3.25;;;;;8.24;91.24;100602.97;6247318;22;45246;-89
2022/11/29 00:43:38;;;;;;;;;3.00;3.00;;;;;8.23;90.98;100607.38;6248695;22;45439;-89
2022/11/29 00:46:03;;;;;;;;;5.00;4.75;;;;;7.20;91.16;100438.16;6219449;22;45534;-89
2022/11/29 00:48:30;;;;;;;;;4.75;4.00;;;;;7.98;91.66;100565.47;6245654;22;46735;-88
2022/11/29 00:50:55;;;;;;;;;4.25;4.25;;;;;7.31;90.75;100452.97;6217396;22;45449;-88
2022/11/29 00:53:20;;;;;;;;;4.00;2.50;;;;;7.56;91.31;100493.94;6221457;22;45336;-89
2022/11/29 00:55:47;;;;;;;;;4.00;3.00;;;;;7.37;91.39;100464.28;6223120;22;45274;-89
2022/11/29 00:58:13;;;;;;;;;3.00;2.75;;;;;7.98;91.58;100578.63;6218633;22;47064;-89
2022/11/29 01:00:39;;;;;;;;;0.75;0.75;;;;;7.28;91.51;100456.50;6221682;22;45290;-89
2022/11/29 01:03:06;;;;;;;;;3.00;3.00;;;;;7.32;91.36;100468.72;6222455;22;45240;-90
2022/11/29 01:05:31;;;;;;;;;3.75;3.75;;;;;6.56;91.34;100335.28;6250257;22;45413;-90
2022/11/29 01:07:57;;;;;;;;;3.50;3.00;;;;;6.50;91.30;100311.72;6250081;22;45508;-91
2022/11/29 01:10:22;;;;;;;;;4.00;3.00;;;;;6.98;91.10;100412.91;6220694;22;45222;-91
2022/11/29 01:12:49;;;;;;;;;5.50;2.25;;;;;6.99;90.99;100396.28;6250631;22;45186;-91
2022/11/29 01:15:15;;;;;;;;;4.00;2.25;;;;;7.28;91.66;100459.97;6218839;22;45552;-90
2022/11/29 01:17:41;;;;;;;;;7.00;2.75;;;;;7.06;91.40;100424.22;6217867;22;46963;-90
2022/11/29 01:20:09;;;;;;;;;2.50;2.50;;;;;8.10;91.40;100603.09;6218525;22;45293;-89
2022/11/29 01:22:35;;;;;;;;;1.50;1.50;;;;;7.45;91.32;100503.66;6229105;22;45305;-89
2022/11/29 01:25:01;;;;;;;;;3.00;3.00;;;;;6.40;91.42;100328.41;6233238;22;45220;-89
2022/11/29 01:27:29;;;;;;;;;3.25;3.25;;;;;6.23;91.54;100300.50;6224045;22;47505;-89
2022/11/29 01:29:54;;;;;;;;;2.25;2.00;;;;;7.23;91.83;100472.31;6225489;22;45349;-88
2022/11/29 01:32:20;;;;;;;;;2.50;1.75;;;;;7.99;91.41;100617.22;6222289;22;45349;-89
2022/11/29 01:34:46;;;;;;;;;4.00;3.00;;;;;7.02;91.50;100454.06;6229548;22;44924;-88
2022/11/29 01:37:11;;;;;;;;;4.00;3.25;;;;;7.11;91.63;100491.66;6256895;22;45265;-90
2022/11/29 01:39:37;;;;;;;;;3.25;2.00;;;;;6.92;91.06;100456.75;6251867;22;45340;-90
2022/11/29 01:42:03;;;;;;;;;4.00;2.50;;;;;7.12;91.74;100492.50;6250818;22;45246;-89
2022/11/29 01:44:28;;;;;;;;;3.00;3.00;;;;;7.90;91.97;100629.59;6246241;22;45643;-87
2022/11/29 01:46:55;;;;;;;;;3.00;2.00;;;;;7.88;91.83;100634.88;6219715;22;46202;-90
2022/11/29 01:49:31;;;;;;;;;3.75;3.75;;;;;6.60;91.83;100425.44;6222683;22;45298;-89
2022/11/29 01:52:04;;;;;;;;;1.00;1.00;;;;;7.52;91.78;100584.28;6221741;22;45358;-90
2022/11/29 01:54:33;;;;;;;;;4.00;3.00;;;;;7.89;92.24;100644.50;6253575;22;45259;-90
2022/11/29 01:57:02;;;;;;;;;2.00;2.00;;;;;6.76;91.79;100460.38;6219093;22;48329;-89
2022/11/29 01:59:29;;;;;;;;;2.75;2.50;;;;;7.94;92.12;100653.25;6221094;22;45493;-90
2022/11/29 02:02:05;;;;;;;;;1.00;1.00;;;;;7.96;92.05;100651.47;6219874;22;45314;-89
2022/11/29 02:04:35;;;;;;;;;3.25;3.25;;;;;7.04;91.93;100489.09;6218273;22;45253;-88
2022/11/29 02:07:01;;;;;;;;;1.50;0.75;;;;;6.83;91.23;100451.56;6219620;22;46354;-90
2022/11/29 02:09:26;;;;;;;;;3.50;2.50;;;;;7.38;91.12;100539.69;6246856;22;45601;-90
2022/11/29 02:12:10;;;;;;;;;3.00;3.00;;;;;8.05;91.89;100661.06;6220665;22;45749;-89
2022/11/29 02:15:02;;;;;;;;;6.50;2.75;;;;;8.09;92.07;100656.63;6221627;22;45588;-89
2022/11/29 02:17:46;;;;;;;;;3.25;3.25;;;;;8.10;91.65;100653.13;6247757;22;45529;-89
2022/11/29 02:20:39;;;;;;;;;3.00;3.00;;;;;8.12;91.72;100662.78;6220060;22;45188;-90
2022/11/29 02:23:04;;;;;;;;;4.00;4.00;;;;;7.76;91.73;100592.88;6229033;22;45249;-90
2022/11/29 02:26:16;;;;;;;;;4.25;2.75;;;;;8.17;92.46;100658.31;6220869;22;45310;-89
2022/11/29 02:29:19;;;;;;;;;4.75;3.75;;;;;8.19;92.01;100653.03;6039722;23;47101;-89
2022/11/29 02:32:22;;;;;;;;;4.25;2.25;;;;;8.21;91.58;100656.53;6063676;23;45476;-89
2022/11/29 02:35:26;;;;;;;;;4.25;2.75;;;;;7.60;91.63;100553.50;6065948;23;45276;-89
2022/11/29 02:38:15;;;;;;;;;2.25;2.25;;;;;7.17;91.45;100482.88;6065446;23;45588;-89
2022/11/29 02:40:55;;;;;;;;;3.00;3.00;;;;;7.51;91.91;100537.81;6065287;23;45466;-88
2022/11/29 02:43:21;;;;;;;;;3.00;2.00;;;;;8.27;91.82;100669.63;6068591;23;45403;-89
2022/11/29 02:46:15;;;;;;;;;2.25;2.00;;;;;8.29;91.68;100659.09;6064656;23;45476;-89
2022/11/29 02:48:49;;;;;;;;;6.00;6.00;;;;;8.31;91.00;100670.50;6059364;23;45233;-90
2022/11/29 02:51:41;;;;;;;;;1.50;1.50;;;;;7.58;91.49;100549.19;6063413;23;47267;-90
2022/11/29 02:54:22;;;;;;;;;2.00;2.00;;;;;6.78;90.99;100407.81;6044496;23;45401;-89
2022/11/29 02:57:20;;;;;;;;;3.50;3.50;;;;;8.34;91.49;100667.84;6066142;23;45316;-88
2022/11/29 03:00:05;;;;;;;;;3.25;3.25;;;;;7.40;91.44;100513.38;6065905;23;45457;-90
2022/11/29 03:02:38;;;;;;;;;4.00;1.50;;;;;7.49;91.15;100518.56;6066403;23;45522;-89
2022/11/29 03:05:28;;;;;;;;;3.25;3.25;;;;;8.37;91.64;100667.81;6103751;22;45745;-89
2022/11/29 03:08:30;;;;;;;;;2.00;1.25;;;;;8.40;91.34;100674.81;6212593;22;45426;-89
2022/11/29 03:11:32;;;;;;;;;3.50;3.50;;;;;8.39;91.95;100673.91;6169955;22;45481;-89
2022/11/29 03:14:21;;;;;;;;;2.00;2.00;;;;;8.12;90.89;100625.91;6185065;22;47578;-89
2022/11/29 03:16:53;;;;;;;;;4.00;4.00;;;;;7.59;90.73;100541.28;6189592;22;45854;-90
2022/11/29 03:19:39;;;;;;;;;4.00;2.50;;;;;7.62;91.57;100551.75;6218777;22;45245;-88
2022/11/29 03:22:16;;;;;;;;;3.00;3.00;;;;;8.41;90.99;100681.81;6221427;22;45428;-89
2022/11/29 03:24:53;;;;;;;;;4.00;4.00;;;;;8.13;91.23;100632.91;6189255;22;46266;-89
2022/11/29 03:27:32;;;;;;;;;3.25;2.25;;;;;8.24;91.20;100651.22;6218450;22;45482;-89
2022/11/29 03:30:00;;;;;;;;;3.75;3.75;;;;;8.22;91.40;100647.75;6214981;22;45164;-89
2022/11/29 03:32:33;;;;;;;;;3.00;2.75;;;;;7.76;90.87;100571.84;6212987;22;45464;-88
2022/11/29 03:35:21;;;;;;;;;4.00;4.00;;;;;8.46;91.53;100691.47;6219099;22;45456;-89
2022/11/29 03:37:58;;;;;;;;;1.00;1.00;;;;;8.47;91.41;100690.56;6187108;22;45386;-89
2022/11/29 03:40:34;;;;;;;;;4.00;3.25;;;;;7.72;91.11;100564.84;6184356;22;45459;-89
2022/11/29 03:43:06;;;;;;;;;6.75;4.75;;;;;8.06;91.30;100625.06;6212711;22;45274;-88
2022/11/29 03:45:43;;;;;;;;;7.25;3.25;;;;;8.14;91.07;100647.81;6213903;22;45433;-89
2022/11/29 03:48:16;;;;;;;;;6.50;4.00;;;;;7.54;91.45;100542.19;6186931;22;45294;-89
2022/11/29 03:51:21;;;;;;;;;4.25;4.00;;;;;8.10;91.02;100645.22;6188264;22;45391;-88
2022/11/29 03:54:09;;;;;;;;;3.50;3.50;;;;;8.49;90.75;100704.59;6133540;22;45822;-89
2022/11/29 03:56:38;;;;;;;;;2.50;2.50;;;;;8.51;91.13;100712.47;6196313;22;45246;-90
2022/11/29 03:59:48;;;;;;;;;4.00;3.75;;;;;8.47;91.05;100710.75;6216272;22;45240;-87
2022/11/29 04:02:41;;;;;;;;;5.00;3.00;;;;;7.97;90.46;100626.00;6184645;22;45475;-88
2022/11/29 04:05:19;;;;;;;;;3.00;3.00;;;;;8.50;90.87;100716.00;6184629;22;45439;-89
2022/11/29 04:08:09;;;;;;;;;4.00;4.00;;;;;8.49;91.48;100717.78;6183729;22;48031;-88
2022/11/29 04:10:56;;;;;;;;;4.75;4.75;;;;;8.50;90.85;100710.72;6213331;22;45421;-88
2022/11/29 04:13:40;;;;;;;;;3.50;3.50;;;;;8.51;90.66;100717.75;6212637;22;45409;-89
2022/11/29 04:16:42;;;;;;;;;4.50;3.25;;;;;8.51;91.45;100723.88;6216834;22;45291;-87
2022/11/29 04:19:29;;;;;;;;;6.25;6.25;;;;;8.52;90.79;100730.91;6187999;22;46809;-87
2022/11/29 04:22:33;;;;;;;;;5.25;5.25;;;;;8.52;91.38;100730.06;6219813;22;45194;-89
2022/11/29 04:25:13;;;;;;;;;3.50;3.50;;;;;8.53;91.22;100742.31;6094031;23;45488;-89
2022/11/29 04:27:44;;;;;;;;;9.00;5.50;;;;;8.55;90.85;100740.56;6067727;23;45352;-89
2022/11/29 04:30:14;;;;;;;;;7.75;4.00;;;;;8.55;90.94;100737.94;6090052;23;45435;-89
2022/11/29 04:32:54;;;;;;;;;4.75;4.00;;;;;8.56;90.92;100738.78;6089277;23;45480;-88
2022/11/29 04:35:43;;;;;;;;;5.25;4.00;;;;;7.60;90.51;100582.44;6069283;23;45419;-88
2022/11/29 04:38:27;;;;;;;;;4.75;3.75;;;;;7.06;90.63;100487.31;6092540;23;45578;-88
2022/11/29 04:40:59;;;;;;;;;4.50;3.50;;;;;8.56;90.30;100744.91;6096065;23;47005;-89
2022/11/29 04:43:46;;;;;;;;;4.00;4.00;;;;;7.53;91.12;100575.50;6096008;23;45359;-89
2022/11/29 04:47:13;;;;;;;;;6.00;4.00;;;;;8.59;91.14;100763.34;6099420;23;45309;-92
2022/11/29 04:49:57;;;;;;;;;4.25;4.25;;;;;8.58;90.87;100764.25;5987569;23;45225;-90
2022/11/29 04:52:40;;;;;;;;;6.50;4.75;;;;;8.58;90.38;100766.88;6019810;23;47084;-90
2022/11/29 04:55:31;;;;;;;;;5.25;5.00;;;;;8.57;90.51;100765.13;6018813;23;45374;-90
2022/11/29 04:58:00;;;;;;;;;3.50;3.50;;;;;8.57;90.48;100769.53;6053402;23;45167;-90
2022/11/29 05:00:34;;;;;;;;;5.25;4.25;;;;;7.68;90.60;100621.00;6077801;23;45534;-90
2022/11/29 05:03:15;;;;;;;;;3.25;3.25;;;;;8.56;90.62;100757.22;6158472;23;47093;-90
2022/11/29 05:06:05;;;;;;;;;7.00;4.50;;;;;8.14;90.88;100703.13;6134702;23;45213;-90
2022/11/29 05:08:33;;;;;;;;;4.50;4.00;;;;;8.56;90.95;100779.16;6127445;23;45322;-90
2022/11/29 05:11:25;;;;;;;;;5.50;5.50;;;;;8.57;90.58;100777.44;6154885;23;45367;-90
2022/11/29 05:14:16;;;;;;;;;8.00;4.75;;;;;8.58;90.95;100777.41;6127663;23;47103;-90
2022/11/29 05:16:47;;;;;;;;;4.00;4.00;;;;;8.57;90.18;100788.84;6133532;23;45264;-90
2022/11/29 05:19:24;;;;;;;;;8.75;5.25;;;;;7.77;91.28;100650.75;6133526;23;45265;-90
2022/11/29 05:22:27;;;;;;;;;7.50;6.50;;;;;7.93;90.87;100683.09;6163172;23;45247;-89
2022/11/29 05:25:14;;;;;;;;;7.75;6.50;;;;;8.56;90.69;100789.72;6218336;22;45447;-90
2022/11/29 05:28:07;;;;;;;;;4.25;3.75;;;;;8.56;91.29;100788.84;6218887;22;45166;-91
2022/11/29 05:31:02;;;;;;;;;5.25;5.25;;;;;8.29;90.37;100746.88;6221367;22;45397;-90
2022/11/29 05:33:46;;;;;;;;;5.50;3.50;;;;;8.37;90.72;100773.16;6189449;22;45612;-90
2022/11/29 05:36:37;;;;;;;;;6.50;4.50;;;;;7.36;90.55;100596.66;6216652;22;48647;-90
2022/11/29 05:39:39;;;;;;;;;7.50;4.00;;;;;8.55;90.52;100809.06;6187267;22;45269;-90
2022/11/29 05:42:25;;;;;;;;;4.00;4.00;;;;;7.47;90.90;100646.56;6217427;22;45291;-90
2022/11/29 05:44:57;;;;;;;;;6.25;6.25;;;;;7.43;90.62;100636.94;6219366;22;45424;-90
2022/11/29 05:47:35;;;;;;;;;4.00;2.75;;;;;8.55;91.27;100835.41;6218700;22;48074;-89
2022/11/29 05:50:46;;;;;;;;;5.00;5.00;;;;;8.35;90.24;100791.63;6220894;22;45227;-91
2022/11/29 05:53:36;;;;;;;;;4.75;4.75;;;;;6.66;90.50;100505.94;6153887;22;45423;-90
2022/11/29 05:56:09;;;;;;;;;6.75;4.75;;;;;8.56;90.25;100828.38;6199715;22;45456;-90
2022/11/29 05:58:53;;;;;;;;;5.00;5.00;;;;;8.57;90.80;100849.44;6196024;22;47014;-90
2022/11/29 06:01:51;;;;;;;;;6.75;6.75;;;;;8.17;90.97;100787.34;6223650;22;45395;-90
2022/11/29 06:04:27;;;;;;;;;7.25;7.25;;;;;8.00;90.77;100737.44;6193234;22;45287;-89
2022/11/29 06:07:32;;;;;;;;;8.00;8.00;;;;;8.56;90.39;100837.13;6190452;22;45529;-89
2022/11/29 06:10:27;;;;;;;;;7.00;7.00;;;;;8.25;90.92;100789.91;6196648;22;47124;-90
2022/11/29 06:13:31;;;;;;;;;7.25;7.25;;;;;8.38;91.28;100813.53;6188402;22;45262;-90
2022/11/29 06:16:18;;;;;;;;;7.75;5.75;;;;;8.56;90.14;100842.41;6123689;23;45320;-89
2022/11/29 06:19:24;;;;;;;;;9.50;8.75;;;;;8.54;90.65;100852.09;6134080;23;45153;-89
2022/11/29 06:22:01;;;;;;;;;6.25;4.00;;;;;8.53;89.86;100850.34;6132820;23;45508;-89
2022/11/29 06:25:06;;;;;;;;;9.50;7.50;;;;;8.52;90.53;100856.50;6125059;23;45484;-90
2022/11/29 06:27:52;;;;;;;;;11.00;11.00;;;;;8.17;90.70;100802.28;6128949;23;45480;-89
2022/11/29 06:30:27;;;;;;;;;3.50;2.50;;;;;8.48;90.74;100866.16;6125476;23;45375;-88
2022/11/29 06:33:21;;;;;;;;;8.00;8.00;;;;;8.10;90.63;100816.34;6129400;23;47061;-89
2022/11/29 06:36:13;;;;;;;;;13.75;9.00;;;;;8.44;90.68;100860.94;6131417;23;45963;-88
2022/11/29 06:38:39;;;;;;;;;9.25;8.00;;;;;7.65;90.09;100738.53;6130729;23;45414;-90
2022/11/29 06:41:05;;;;;;;;;8.00;8.00;;;;;8.40;90.71;100862.69;6127149;23;45386;-88
2022/11/29 06:43:31;;;;;;;;;14.00;9.25;;;;;8.40;90.70;100875.00;6128030;23;45469;-90
2022/11/29 06:46:04;;;;;;;;;8.75;8.00;;;;;8.41;90.55;100868.81;6129084;23;45419;-90
2022/11/29 06:48:40;;;;;;;;;10.75;9.00;;;;;8.38;90.88;100882.91;6129351;23;45493;-89
2022/11/29 06:51:30;;;;;;;;;10.00;9.50;;;;;8.38;90.67;100877.66;6143640;23;45349;-90
2022/11/29 06:54:21;;;;;;;;;10.25;10.00;;;;;7.80;90.41;100784.06;6217174;22;46517;-91
2022/11/29 06:57:19;;;;;;;;;3.50;2.50;;;;;8.38;91.15;100885.53;6222287;22;45344;-90
2022/11/29 07:00:17;;;;;;;;;9.25;8.00;;;;;8.05;90.26;100828.66;6227785;22;45384;-90
2022/11/29 07:03:00;;;;;;;;;11.25;9.50;;;;;7.26;90.88;100695.75;6224338;22;45183;-91
2022/11/29 07:05:30;;;;;;;;;9.00;7.25;;;;;8.38;90.98;100890.81;6254556;22;45334;-89
2022/11/29 07:08:01;;;;;;;;;9.50;9.00;;;;;7.24;90.75;100702.78;6224572;22;45420;-91
2022/11/29 07:10:29;;;;;;;;;12.75;11.00;;;;;8.36;90.74;100895.19;6228857;22;45195;-91
2022/11/29 07:12:55;;;;;;;;;5.75;2.00;;;;;7.91;90.77;100826.09;6226340;22;45247;-90
2022/11/29 07:15:23;;;;;;;;;14.75;9.25;;;;;8.26;90.50;100875.94;6259746;22;45246;-92
2022/11/29 07:18:29;;;;;;;;;12.00;8.00;;;;;8.40;90.46;100909.25;6250734;22;45278;-89
2022/11/29 07:21:10;;;;;;;;;10.25;9.00;;;;;8.42;90.44;100910.09;6224581;22;45197;-92
2022/11/29 07:24:07;;;;;;;;;13.00;10.75;;;;;6.87;90.80;100649.47;6228941;22;45358;-90
2022/11/29 07:26:45;;;;;;;;;9.00;8.75;;;;;8.44;90.13;100911.00;6222793;22;46968;-91
2022/11/29 07:29:33;;;;;;;;;9.75;8.50;;;;;8.12;90.72;100872.50;6246857;22;45279;-88
2022/11/29 07:32:25;;;;;;;;;17.00;14.00;;;;;8.44;90.87;100911.00;6227287;22;44636;-90
2022/11/29 07:35:02;;;;;;;;;9.25;9.25;;;;;8.11;90.99;100855.84;6258154;22;45401;-91
2022/11/29 07:37:38;;;;;;;;;14.50;12.50;;;;;8.46;90.66;100922.41;6221173;22;46640;-90
2022/11/29 07:40:30;;;;;;;;;12.75;11.75;;;;;8.47;90.95;100922.41;6220506;22;45124;-90
2022/11/29 07:43:26;;;;;;;;;13.00;11.00;;;;;8.48;90.67;100920.63;6220457;22;45269;-91
2022/11/29 07:45:56;;;;;;;;;14.25;10.75;;;;;8.12;90.38;100864.59;6227519;22;45657;-90
2022/11/29 07:48:27;;;;;;;;;12.25;11.00;;;;;7.65;89.73;100782.34;6253429;22;45326;-94
2022/11/29 07:50:55;;;;;;;;;14.25;11.00;;;;;6.96;90.29;100659.09;6224961;22;45136;-91
2022/11/29 07:53:21;;;;;;;;;10.50;10.50;;;;;7.34;90.63;100734.28;6251521;22;45311;-91
2022/11/29 07:55:48;;;;;;;;;12.75;10.75;;;;;8.18;89.97;100880.38;6225155;22;45279;-88
2022/11/29 07:58:15;;;;;;;;;11.50;10.75;;;;;6.94;89.86;100662.59;6254415;22;46189;-90
2022/11/29 08:00:42;;;;;;;;;14.25;13.75;;;;;7.40;90.08;100744.78;6230548;22;44682;-90
2022/11/29 08:03:09;;;;;;;;;15.00;15.00;;;;;8.53;90.25;100937.28;6221170;22;45171;-91
2022/11/29 08:05:35;;;;;;;;;20.25;18.00;;;;;7.35;90.19;100736.03;6221655;22;45444;-91
2022/11/29 08:08:01;;;;;;;;;15.25;14.25;;;;;7.65;90.23;100782.34;6225450;22;47063;-90
2022/11/29 08:10:27;;;;;;;;;17.50;16.25;;;;;7.47;90.33;100751.78;6227423;22;45335;-88
2022/11/29 08:12:53;;;;;;;;;19.50;17.25;;;;;7.50;90.14;100780.69;6226814;22;44816;-89
2022/11/29 08:15:20;;;;;;;;;17.25;16.50;;;;;7.91;90.25;100828.72;6222981;22;45579;-88
2022/11/29 08:17:45;;;;;;;;;17.50;17.25;;;;;7.54;89.91;100777.16;6251212;22;45376;-88
2022/11/29 08:20:12;;;;;;;;;18.25;14.25;;;;;8.59;89.73;100960.09;6254876;22;44729;-88
2022/11/29 08:22:37;;;;;;;;;16.75;15.50;;;;;8.57;90.58;100954.81;6228669;22;45299;-88
2022/11/29 08:25:04;;;;;;;;;19.00;15.75;;;;;8.58;90.29;100967.13;6247681;22;45292;-88
2022/11/29 08:27:31;;;;;;;;;21.50;16.50;;;;;7.80;90.28;100837.56;6220911;22;47185;-86
2022/11/29 08:29:56;;;;;;;;;21.25;21.25;;;;;8.01;90.48;100875.19;6246589;22;45360;-88
2022/11/29 08:32:21;;;;;;;;;28.75;21.75;;;;;8.14;90.40;100897.94;6217074;22;45382;-88
2022/11/29 08:34:47;;;;;;;;;21.75;20.25;;;;;7.57;89.92;100807.84;6245936;22;45362;-88
2022/11/29 08:37:12;;;;;;;;;23.25;21.50;;;;;8.05;90.16;100886.56;6216593;22;45458;-88
2022/11/29 08:39:38;;;;;;;;;25.25;20.25;;;;;7.74;90.44;100839.34;6216370;22;46140;-89
2022/11/29 08:42:07;;;;;;;;;17.50;16.25;;;;;7.86;90.39;100870.88;6217018;22;45466;-88
2022/11/29 08:44:33;;;;;;;;;22.00;22.00;;;;;6.88;90.41;100707.28;6215594;22;45600;-89
2022/11/29 08:50:00;;;;;;;;;26.25;21.50;;;;;7.99;90.15;100919.94;6249031;22;45381;-87
2022/11/29 08:55:26;;;;;;;;;23.25;21.50;;;;;8.35;89.86;101012.88;6254193;22;45158;-89
2022/11/29 08:57:53;;;;;;;;;15.00;15.00;;;;;8.33;90.14;101008.47;6247595;22;47456;-88
2022/11/29 09:00:20;;;;;;;;;16.50;14.00;;;;;8.24;90.12;101026.94;6220017;22;45469;-90
2022/11/29 09:02:46;;;;;;;;;24.50;19.25;;;;;7.35;89.92;100867.50;6218304;22;45131;-91
2022/11/29 09:05:17;;;;;;;;;21.75;20.00;;;;;7.60;89.75;100920.94;6217383;22;45273;-91
2022/11/29 09:07:45;;;;;;;;;25.00;22.75;;;;;8.18;89.53;101022.56;6221322;22;47047;-90
2022/11/29 09:10:11;;;;;;;;;24.50;20.75;;;;;6.48;89.96;100744.09;6224692;22;45449;-90
2022/11/29 09:12:38;;;;;;;;;27.00;22.25;;;;;7.94;89.77;101003.34;6224368;22;45187;-90
2022/11/29 09:15:06;;;;;;;;;35.75;27.50;;;;;7.54;89.59;100945.50;6224364;22;45283;-89
2022/11/29 09:17:32;;;;;;;;;22.00;20.75;;;;;8.12;90.05;101051.53;6225556;22;46950;-90
2022/11/29 09:19:58;;;;;;;;;30.75;22.25;;;;;6.79;90.20;100838.69;6248431;22;45349;-91
2022/11/29 09:22:23;;;;;;;;;25.25;23.75;;;;;6.64;90.18;100804.53;6227318;22;45420;-89
2022/11/29 09:24:49;;;;;;;;;27.25;26.25;;;;;7.70;90.16;100974.41;6248908;22;45340;-90
2022/11/29 09:27:14;;;;;;;;;18.25;16.75;;;;;8.14;90.34;101060.34;6220457;22;47356;-89
2022/11/29 09:29:39;;;;;;;;;23.00;20.00;;;;;7.09;90.01;100884.19;6244783;22;45427;-90
2022/11/29 09:32:08;;;;;;;;;17.25;17.25;;;;;6.90;90.08;100836.03;6219799;22;45324;-90
2022/11/29 09:34:34;;;;;;;;;27.75;22.75;;;;;6.20;89.87;100719.63;6225013;22;46440;-88
2022/11/29 09:37:00;;;;;;;;;23.75;22.00;;;;;8.24;89.85;101062.03;6226963;22;47139;-89
2022/11/29 09:39:31;;;;;;;;;18.50;14.00;;;;;7.85;89.45;101002.47;6220503;22;45222;-89
2022/11/29 09:42:29;;;;;;;;;26.75;23.75;;;;;8.32;89.58;101075.19;6221100;22;45220;-88
2022/11/29 09:45:08;;;;;;;;;27.25;21.00;;;;;6.38;89.61;100745.88;6165167;23;45252;-91
2022/11/29 09:47:47;;;;;;;;;20.50;19.50;;;;;7.97;89.63;101020.84;6162600;23;45754;-89
2022/11/29 09:50:34;;;;;;;;;23.50;18.50;;;;;8.40;89.67;101067.28;6133431;23;45213;-90
2022/11/29 09:53:11;;;;;;;;;19.75;15.75;;;;;8.44;89.53;101076.94;6127492;23;45329;-90
2022/11/29 09:55:37;;;;;;;;;19.25;16.50;;;;;8.49;89.26;101083.09;6154994;23;45307;-89
2022/11/29 09:58:09;;;;;;;;;22.75;19.50;;;;;7.95;89.44;100998.94;6158499;23;45334;-90
2022/11/29 10:00:40;;;;;;;;;21.00;19.50;;;;;7.93;89.37;100987.53;6134356;23;45363;-91
2022/11/29 10:03:22;;;;;;;;;26.00;23.50;;;;;6.70;89.17;100804.53;6128501;23;45225;-90
2022/11/29 10:05:55;;;;;;;;;15.50;15.50;;;;;7.39;89.89;100906.09;6154141;23;45460;-90
2022/11/29 10:08:37;;;;;;;;;22.00;17.75;;;;;7.52;89.60;100923.59;6128078;23;47313;-89
2022/11/29 10:11:15;;;;;;;;;16.25;14.00;;;;;8.67;89.36;101112.03;6131179;23;45240;-90
2022/11/29 10:13:48;;;;;;;;;22.25;17.25;;;;;8.68;89.36;101124.31;6136521;23;45401;-89
2022/11/29 10:16:18;;;;;;;;;18.00;17.00;;;;;7.75;89.01;100949.00;6137713;23;45225;-91
2022/11/29 10:19:14;;;;;;;;;22.00;20.75;;;;;8.18;89.05;101027.81;6131994;23;47129;-90
2022/11/29 10:21:53;;;;;;;;;17.25;16.00;;;;;8.49;88.81;101057.63;6163420;22;45401;-92
2022/11/29 10:24:21;;;;;;;;;22.75;20.00;;;;;7.94;88.88;100969.13;6226860;22;45256;-91
2022/11/29 10:26:49;;;;;;;;;16.75;16.00;;;;;7.37;89.02;100865.78;6221604;22;45319;-90
2022/11/29 10:29:15;;;;;;;;;25.00;19.75;;;;;8.33;88.85;101021.63;6219215;22;47142;-90
2022/11/29 10:31:45;;;;;;;;;24.00;20.25;;;;;7.06;89.08;100785.22;6216132;22;45255;-90
2022/11/29 10:34:22;;;;;;;;;23.75;20.00;;;;;9.00;89.00;101112.75;6218294;22;45452;-91
2022/11/29 10:36:54;;;;;;;;;19.75;17.00;;;;;8.13;89.10;100966.41;6217615;22;45369;-90
2022/11/29 10:39:39;;;;;;;;;24.00;22.75;;;;;8.43;88.78;101014.59;6248674;22;45736;-90
2022/11/29 10:42:47;;;;;;;;;28.25;22.00;;;;;9.15;88.33;101105.63;6226931;22;45227;-91
2022/11/29 10:44:59;;;;;;;;;31.00;23.25;;;;;7.87;88.32;100892.81;6252955;22;45170;-90
2022/11/29 10:47:24;;;;;;;;;28.50;23.25;;;;;8.57;88.14;100986.44;6222518;22;45349;-91
2022/11/29 10:49:50;;;;;;;;;26.25;19.25;;;;;8.59;88.73;100971.50;6223195;22;48111;-90
2022/11/29 10:52:19;;;;;;;;;22.25;19.50;;;;;8.90;87.92;101010.88;6243849;22;45526;-90
2022/11/29 10:54:47;;;;;;;;;20.50;19.25;;;;;8.94;88.09;101004.66;6217948;22;45434;-90
2022/11/29 10:57:16;;;;;;;;;12.75;12.00;;;;;9.72;88.27;101113.19;6221146;22;45551;-87
2022/11/29 10:59:56;;;;;;;;;28.25;25.25;;;;;8.78;87.90;100953.81;6219145;22;46971;-90
2022/11/29 11:02:23;;;;;;;;;23.00;21.75;;;;;8.56;88.10;100895.09;6220578;22;45344;-91
2022/11/29 11:04:49;;;;;;;;;28.50;27.25;;;;;8.34;87.82;100863.59;6219569;22;45350;-90
2022/11/29 11:07:31;;;;;;;;;23.00;19.00;;;;;9.49;88.25;101061.44;6243917;22;45520;-90
2022/11/29 11:09:58;;;;;;;;;20.00;20.00;;;;;9.01;88.05;100994.97;6229415;22;47053;-92
2022/11/29 11:12:29;;;;;;;;;23.25;19.25;;;;;8.84;88.07;100972.22;6233338;22;45292;-89
2022/11/29 11:15:27;;;;;;;;;29.75;26.75;;;;;9.74;87.97;101122.81;6249671;22;45416;-91
2022/11/29 11:18:02;;;;;;;;;21.50;20.00;;;;;9.37;87.89;101064.19;6244604;22;45321;-90
2022/11/29 11:20:30;;;;;;;;;25.00;19.25;;;;;7.98;87.93;100839.22;6248197;22;45565;-91
2022/11/29 11:23:01;;;;;;;;;17.00;16.75;;;;;8.71;88.07;100981.09;6227129;22;45499;-90
2022/11/29 11:25:38;;;;;;;;;25.75;23.00;;;;;9.57;87.89;101125.59;6222202;22;45381;-90
2022/11/29 11:28:37;;;;;;;;;23.50;19.25;;;;;9.56;88.17;101122.97;6223765;22;45492;-91
2022/11/29 11:31:09;;;;;;;;;21.00;20.00;;;;;7.82;88.15;100827.03;6127039;23;48398;-91
2022/11/29 11:33:44;;;;;;;;;25.00;19.00;;;;;9.57;87.97;101119.44;6156674;23;45272;-90
2022/11/29 11:36:20;;;;;;;;;23.75;22.25;;;;;8.06;87.94;100865.53;6164331;23;45215;-91
2022/11/29 11:39:08;;;;;;;;;22.75;20.75;;;;;9.58;88.04;101122.06;6135402;23;45416;-90
2022/11/29 11:44:48;;;;;;;;;20.00;17.50;;;;;9.62;87.82;101120.28;6153966;23;45192;-90
2022/11/29 11:47:16;;;;;;;;;30.50;25.50;;;;;9.63;87.79;101121.19;6153409;23;45433;-89
2022/11/29 11:49:52;;;;;;;;;22.25;22.25;;;;;8.85;87.59;100994.19;6151775;23;45304;-89
2022/11/29 11:52:28;;;;;;;;;23.75;22.50;;;;;9.45;87.80;101087.88;6159609;23;47283;-89
2022/11/29 11:54:57;;;;;;;;;32.50;25.50;;;;;9.69;87.68;101123.78;6153641;23;44799;-91
2022/11/29 11:57:25;;;;;;;;;29.50;24.00;;;;;8.94;87.78;100990.63;6132679;23;45325;-91
2022/11/29 11:59:53;;;;;;;;;26.50;24.75;;;;;7.72;87.46;100789.34;6158039;23;45458;-90
2022/11/29 12:02:42;;;;;;;;;22.25;19.50;;;;;9.86;87.46;101115.72;6136324;23;46579;-90
2022/11/29 12:05:18;;;;;;;;;33.25;27.50;;;;;9.90;87.23;101117.41;6164345;23;44888;-91
2022/11/29 12:07:57;;;;;;;;;32.00;30.00;;;;;9.93;87.24;101118.28;6183204;22;44797;-90
2022/11/29 12:10:30;;;;;;;;;33.25;29.00;;;;;9.64;86.82;101067.47;6229297;22;44832;-88
2022/11/29 12:12:57;;;;;;;;;34.25;28.50;;;;;9.41;86.62;101024.56;6228453;22;47057;-89
2022/11/29 12:15:25;;;;;;;;;31.25;27.75;;;;;9.60;86.99;101056.94;6245356;22;45278;-90
2022/11/29 12:18:15;;;;;;;;;24.50;23.00;;;;;8.85;86.90;100928.28;6216987;22;45303;-89
2022/11/29 12:21:18;;;;;;;;;31.25;27.00;;;;;9.67;87.15;101073.63;6244994;22;45352;-89
2022/11/29 12:24:19;;;;;;;;;29.75;28.50;;;;;9.83;86.78;101097.25;6221458;22;47997;-92